This is the latest recevied weather packets stored in our database for station/object N2XP-3. If no packets are shown the sender has not sent any weather packets the latest 10 day(s).
| Time | Temp. | Humidity | Pressure | Rain* | Wind** | Luminosity | Snow |
|---|---|---|---|---|---|---|---|
| 1777000361 | 14.44° C | 49% | 1008.8 hPa | 0 mm | 0.45 m/s, 302° | - | - |
| 1777000054 | 15° C | 47% | 1008.8 hPa | 0 mm | 0 m/s | - | - |
| 1776999755 | 15° C | 46% | 1008.8 hPa | 0 mm | 0 m/s | - | - |
| 1776999455 | 15° C | 46% | 1008.8 hPa | 0 mm | 0 m/s | - | - |
| 1776999153 | 15° C | 45% | 1008.7 hPa | 0 mm | 0 m/s | - | - |
| 1776998851 | 15.56° C | 45% | 1008.6 hPa | 0 mm | 0 m/s | - | - |
| 1776998552 | 15° C | 45% | 1008.6 hPa | 0 mm | 0.45 m/s, 97° | - | - |
| 1776998241 | 15° C | 45% | 1008.6 hPa | 0 mm | 1.79 m/s, 80° | - | - |
| 1776997698 | 15° C | 47% | 1008.7 hPa | 0 mm | 0 m/s | - | - |
| 1776997642 | 15° C | 47% | 1008.7 hPa | 0 mm | 0 m/s | - | - |
| 1776996795 | 15° C | 47% | 1008.7 hPa | 0 mm | 0.89 m/s, 121° | - | - |
| 1776996741 | 15° C | 47% | 1008.7 hPa | 0 mm | 0.89 m/s, 121° | - | - |
| 1776996435 | 15° C | 49% | 1008.7 hPa | 0 mm | 0.45 m/s, 58° | - | - |
| 1776996135 | 14.44° C | 49% | 1008.8 hPa | 0 mm | 0.89 m/s, 49° | - | - |
| 1776995518 | 14.44° C | 51% | 1009.1 hPa | 0 mm | 0.45 m/s, 44° | - | - |
| 1776995219 | 14.44° C | 51% | 1008.9 hPa | 0 mm | 0 m/s | - | - |
| 1776994919 | 14.44° C | 50% | 1009.1 hPa | 0 mm | 0 m/s | - | - |
| 1776994311 | 14.44° C | 49% | 1008.8 hPa | 0 mm | 0.45 m/s, 58° | - | - |
| 1776994012 | 14.44° C | 50% | 1008.7 hPa | 0 mm | 0.89 m/s, 49° | - | - |
| 1776993392 | 15° C | 47% | 1008.9 hPa | 0 mm | 0 m/s | - | - |
| 1776993089 | 15° C | 46% | 1008.9 hPa | 0 mm | 0 m/s | - | - |
| 1776992783 | 15.56° C | 46% | 1008.9 hPa | 0 mm | 0 m/s | - | - |
| 1776992185 | 16.11° C | 44% | 1008.9 hPa | 0 mm | 0 m/s | - | - |
| 1776991881 | 16.11° C | 45% | 1008.9 hPa | 0 mm | 0 m/s | - | - |
| 1776991581 | 16.67° C | 45% | 1008.8 hPa | 0 mm | 0 m/s | - | - |
* Rain latest hour (hover to see other rain measurements)
** Current wind speed in m/s (hover to see current wind gust speed)